Terminal Aerodrome Forecast
Issued by NWS Albuquerque, NM

Home | Current Version | Previous Version | Text Only | Print | Product List | Glossary On
Versions: 1 2 3 4 5 6 7 8 9 10 11 12 13 14 15 16 17 18 19 20 21
000
FTUS45 KABQ 011740
TAFABQ
TAF
KABQ 011740Z 0118/0218 VRB05KT P6SM SCT120
     FM012100 22007KT P6SM VCTS SCT060CB BKN100
     FM020000 18007KT P6SM VCSH SCT050 BKN070
     FM020300 20006KT P6SM FEW050 BKN070
     FM020900 VRB05KT P6SM OVC080=

USA.gov is the U.S. government's official web portal to all federal, state and local government web resources and services.